createdAt,value
2023-04-06T00:02:12.709Z,100053.06
2023-04-06T00:04:40.227Z,100068.53
2023-04-06T00:07:07.555Z,100064.81
2023-04-06T00:09:35.183Z,100068.75
2023-04-06T00:12:03.775Z,100066.84
2023-04-06T00:14:33.192Z,100063.78
2023-04-06T00:17:01.724Z,100061.53
2023-04-06T00:19:30.056Z,100056.66
2023-04-06T00:21:57.599Z,100059.13
2023-04-06T00:24:25.959Z,100059.03
2023-04-06T00:26:53.511Z,100052.53
2023-04-06T00:29:21.239Z,100054.41
2023-04-06T00:31:49.495Z,100053.41
2023-04-06T00:34:17.922Z,100055.00
2023-04-06T00:36:46.351Z,100053.25
2023-04-06T00:39:13.841Z,100057.44
2023-04-06T00:41:49.331Z,100053.84
2023-04-06T00:44:17.026Z,100047.66
2023-04-06T00:46:46.859Z,100049.13
2023-04-06T00:49:14.447Z,100048.94
2023-04-06T00:51:42.965Z,100057.91
2023-04-06T00:54:17.097Z,100053.59
2023-04-06T00:56:45.816Z,100048.28
2023-04-06T00:59:13.787Z,100037.97
2023-04-06T01:01:41.648Z,100051.03
2023-04-06T01:04:10.195Z,100054.28
2023-04-06T01:06:37.513Z,100053.38
2023-04-06T01:09:07.178Z,100049.75
2023-04-06T01:11:34.824Z,100054.00
2023-04-06T01:14:02.263Z,100047.16
2023-04-06T01:16:30.849Z,100047.09
2023-04-06T01:19:11.990Z,100045.34
2023-04-06T01:21:40.769Z,100050.53
2023-04-06T01:24:09.340Z,100046.28
2023-04-06T01:26:36.924Z,100055.56
2023-04-06T01:29:05.612Z,100044.03
2023-04-06T01:31:33.689Z,100057.00
2023-04-06T01:34:01.493Z,100052.81
2023-04-06T01:36:35.110Z,100057.91
2023-04-06T01:39:03.611Z,100049.91
2023-04-06T01:41:31.041Z,100046.41
2023-04-06T01:43:58.444Z,100039.63
2023-04-06T01:46:25.950Z,100038.53
2023-04-06T01:48:54.353Z,100042.75
2023-04-06T01:51:22.931Z,100041.03
2023-04-06T01:53:50.724Z,100039.22
2023-04-06T01:56:18.252Z,100039.88
2023-04-06T01:58:45.884Z,100041.13
2023-04-06T02:01:13.185Z,100045.03
2023-04-06T02:03:40.610Z,100046.06
2023-04-06T02:06:08.120Z,100045.56
2023-04-06T02:08:35.701Z,100050.53
2023-04-06T02:11:04.102Z,100046.97
2023-04-06T02:13:31.634Z,100048.38
2023-04-06T02:15:59.369Z,100038.88
2023-04-06T02:18:27.025Z,100038.81
2023-04-06T02:20:54.497Z,100045.69
2023-04-06T02:23:22.856Z,100050.97
2023-04-06T02:25:50.404Z,100043.13
2023-04-06T02:28:18.852Z,100042.06
2023-04-06T02:30:46.593Z,100046.91
2023-04-06T02:33:13.666Z,100039.47
2023-04-06T02:35:41.317Z,100039.78
2023-04-06T02:38:08.605Z,100034.00
2023-04-06T02:40:36.063Z,100044.59
2023-04-06T02:43:03.506Z,100040.75
2023-04-06T02:45:31.177Z,100044.75
2023-04-06T02:47:58.590Z,100044.03
2023-04-06T02:50:27.945Z,100049.72
2023-04-06T02:52:55.490Z,100045.44
2023-04-06T02:55:23.075Z,100048.53
2023-04-06T02:57:50.340Z,100044.94
2023-04-06T03:00:19.210Z,100051.00
2023-04-06T03:02:46.488Z,100045.88
2023-04-06T03:05:13.709Z,100042.78
2023-04-06T03:07:40.977Z,100041.53
2023-04-06T03:10:11.110Z,100043.88
2023-04-06T03:12:38.785Z,100046.31
2023-04-06T03:15:07.503Z,100047.75
2023-04-06T03:17:34.705Z,100055.25
2023-04-06T03:20:02.059Z,100062.13
2023-04-06T03:22:30.442Z,100053.25
2023-04-06T03:24:57.995Z,100056.59
2023-04-06T03:27:26.458Z,100059.56
2023-04-06T03:29:55.025Z,100060.38
2023-04-06T03:32:28.035Z,100058.72
2023-04-06T03:34:55.613Z,100056.59
2023-04-06T03:37:25.015Z,100055.66
2023-04-06T03:39:53.292Z,100058.56
2023-04-06T03:42:21.706Z,100059.91
2023-04-06T03:44:48.908Z,100057.16
2023-04-06T03:47:16.450Z,100058.41
2023-04-06T03:49:45.914Z,100050.38
2023-04-06T03:52:13.421Z,100052.09
2023-04-06T03:54:41.070Z,100054.19
2023-04-06T03:57:08.440Z,100054.38
2023-04-06T03:59:35.753Z,100060.59
2023-04-06T04:02:03.230Z,100055.25
2023-04-06T04:04:30.628Z,100064.63
2023-04-06T04:06:57.693Z,100064.34
2023-04-06T04:09:25.487Z,100057.06
2023-04-06T04:11:54.620Z,100072.06
2023-04-06T04:14:22.204Z,100067.50
2023-04-06T04:16:49.576Z,100066.06
2023-04-06T04:19:17.864Z,100072.44
2023-04-06T04:21:47.250Z,100070.66
2023-04-06T04:24:15.060Z,100075.34
2023-04-06T04:26:42.589Z,100071.06
2023-04-06T04:29:11.258Z,100064.06
2023-04-06T04:31:38.383Z,100066.16
2023-04-06T04:34:08.140Z,100061.47
2023-04-06T04:36:36.417Z,100062.91
2023-04-06T04:39:03.940Z,100066.28
2023-04-06T04:41:31.522Z,100078.53
2023-04-06T04:43:59.849Z,100071.66
2023-04-06T04:46:29.216Z,100070.59
2023-04-06T04:48:57.891Z,100072.41
2023-04-06T04:51:26.415Z,100073.47
2023-04-06T04:53:55.580Z,100089.06
2023-04-06T04:56:22.636Z,100084.34
2023-04-06T04:58:51.409Z,100087.13
2023-04-06T05:01:18.993Z,100082.41
2023-04-06T05:03:46.535Z,100085.19
2023-04-06T05:06:13.948Z,100082.50
2023-04-06T05:08:42.397Z,100084.88
2023-04-06T05:11:10.801Z,100089.81
2023-04-06T05:13:38.411Z,100080.97
2023-04-06T05:16:08.104Z,100081.25
2023-04-06T05:18:36.649Z,100091.59
2023-04-06T05:21:04.842Z,100094.19
2023-04-06T05:23:32.353Z,100089.03
2023-04-06T05:26:00.176Z,100084.44
2023-04-06T05:28:27.237Z,100087.28
2023-04-06T05:30:58.184Z,100089.78
2023-04-06T05:33:26.523Z,100092.72
2023-04-06T05:35:53.648Z,100085.41
2023-04-06T05:38:21.236Z,100090.44
2023-04-06T05:40:49.522Z,100086.25
2023-04-06T05:43:16.967Z,100085.84
2023-04-06T05:45:46.866Z,100084.44
2023-04-06T05:48:14.110Z,100082.91
2023-04-06T05:50:41.372Z,100077.88
2023-04-06T05:53:08.942Z,100081.28
2023-04-06T05:55:36.472Z,100073.78
2023-04-06T05:58:03.779Z,100082.50
2023-04-06T06:00:32.482Z,100089.75
2023-04-06T06:03:05.578Z,100078.84
2023-04-06T06:05:38.889Z,100081.75
2023-04-06T06:08:05.900Z,100073.31
2023-04-06T06:10:33.451Z,100075.34
2023-04-06T06:13:00.792Z,100077.38
2023-04-06T06:15:28.362Z,100070.88
2023-04-06T06:17:55.810Z,100065.97
2023-04-06T06:20:23.330Z,100073.22
2023-04-06T06:22:51.753Z,100074.31
2023-04-06T06:25:18.798Z,100077.03
2023-04-06T06:27:46.200Z,100074.63
2023-04-06T06:30:13.704Z,100073.09
2023-04-06T06:32:41.390Z,100070.69
2023-04-06T06:35:09.353Z,100072.63
2023-04-06T06:37:36.502Z,100061.59
2023-04-06T06:40:04.086Z,100065.09
2023-04-06T06:42:38.234Z,100070.47
2023-04-06T06:45:06.016Z,100075.78
2023-04-06T06:47:33.725Z,100067.25
2023-04-06T06:50:01.186Z,100063.94
2023-04-06T06:52:30.139Z,100072.69
2023-04-06T06:54:58.032Z,100074.53
2023-04-06T06:57:27.757Z,100078.94
2023-04-06T06:59:54.991Z,100073.84
2023-04-06T07:02:22.274Z,100074.75
2023-04-06T07:04:51.018Z,100078.34
2023-04-06T07:07:18.315Z,100075.78
2023-04-06T07:09:45.747Z,100077.59
2023-04-06T07:12:13.101Z,100078.50
2023-04-06T07:14:40.799Z,100079.44
2023-04-06T07:17:08.258Z,100076.88
2023-04-06T07:19:35.454Z,100083.00
2023-04-06T07:22:03.752Z,100081.31
2023-04-06T07:24:30.990Z,100083.06
2023-04-06T07:27:00.224Z,100077.00
2023-04-06T07:29:27.940Z,100076.09
2023-04-06T07:31:57.537Z,100086.56
2023-04-06T07:34:25.888Z,100085.66
2023-04-06T07:36:55.085Z,100089.13
2023-04-06T07:39:22.263Z,100082.16
2023-04-06T07:41:49.852Z,100083.91
2023-04-06T07:44:18.353Z,100086.50
2023-04-06T07:46:45.690Z,100090.81
2023-04-06T07:49:13.590Z,100087.25
2023-04-06T07:51:41.414Z,100083.75
2023-04-06T07:54:08.868Z,100086.34
2023-04-06T07:56:36.114Z,100084.63
2023-04-06T07:59:04.303Z,100084.59
2023-04-06T08:01:31.891Z,100083.63
2023-04-06T08:03:59.751Z,100087.09
2023-04-06T08:06:27.570Z,100085.28
2023-04-06T08:08:55.371Z,100087.84
2023-04-06T08:11:23.180Z,100081.66
2023-04-06T08:13:51.498Z,100083.28
2023-04-06T08:16:18.872Z,100087.59
2023-04-06T08:18:48.344Z,100078.69
2023-04-06T08:21:16.058Z,100083.69
2023-04-06T08:23:44.613Z,100074.69
2023-04-06T08:26:12.082Z,100078.06
2023-04-06T08:28:39.597Z,100074.41
2023-04-06T08:31:08.428Z,100073.47
2023-04-06T08:33:40.445Z,100074.25
2023-04-06T08:36:12.692Z,100071.69
2023-04-06T08:38:41.343Z,100069.97
2023-04-06T08:41:15.566Z,100068.94
2023-04-06T08:43:50.654Z,100074.22
2023-04-06T08:46:19.211Z,100066.09
2023-04-06T08:48:47.430Z,100071.25
2023-04-06T08:51:15.273Z,100066.78
2023-04-06T08:53:43.373Z,100070.22
2023-04-06T08:56:11.842Z,100062.94
2023-04-06T08:58:41.834Z,100064.47
2023-04-06T09:01:12.872Z,100066.69
2023-04-06T09:03:42.143Z,100056.84
2023-04-06T09:06:10.426Z,100066.53
2023-04-06T09:08:40.590Z,100064.88
2023-04-06T09:11:08.741Z,100064.13
2023-04-06T09:13:51.301Z,100063.81
2023-04-06T09:16:20.071Z,100063.53
2023-04-06T09:18:48.284Z,100063.41
2023-04-06T09:21:20.645Z,100064.00
2023-04-06T09:23:59.541Z,100054.63
2023-04-06T09:26:26.998Z,100052.44
2023-04-06T09:28:58.935Z,100051.69
2023-04-06T09:31:28.436Z,100048.94
2023-04-06T09:33:56.584Z,100040.13
2023-04-06T09:36:36.976Z,100036.19
2023-04-06T09:39:06.250Z,100050.22
2023-04-06T09:41:36.769Z,100037.94
2023-04-06T09:44:12.736Z,100034.28
2023-04-06T09:46:57.639Z,100034.94
2023-04-06T09:49:29.604Z,100038.47
2023-04-06T09:52:10.288Z,100033.53
2023-04-06T09:54:39.889Z,100039.25
2023-04-06T09:57:45.754Z,100039.22
2023-04-06T10:00:20.342Z,100031.94
2023-04-06T10:02:59.514Z,100039.13
2023-04-06T10:05:44.076Z,100036.50
2023-04-06T10:08:12.254Z,100030.63
2023-04-06T10:10:39.784Z,100027.28
2023-04-06T10:13:07.385Z,100018.53
2023-04-06T10:15:36.153Z,100012.59
2023-04-06T10:18:04.924Z,100011.47
2023-04-06T10:21:10.290Z,100006.81
2023-04-06T10:23:43.088Z,100001.09
2023-04-06T10:26:17.625Z,100008.91
2023-04-06T10:28:48.202Z,99999.53
2023-04-06T10:31:16.030Z,99998.78
2023-04-06T10:33:55.968Z,100003.78
2023-04-06T10:36:26.868Z,100005.09
2023-04-06T10:39:06.457Z,100004.34
2023-04-06T10:41:43.537Z,99995.81
2023-04-06T10:44:25.278Z,99989.19
2023-04-06T10:47:02.986Z,99991.88
2023-04-06T10:49:31.292Z,99982.81
2023-04-06T10:51:59.065Z,99980.72
2023-04-06T10:54:29.454Z,99987.44
2023-04-06T10:56:57.844Z,99976.53
2023-04-06T10:59:26.716Z,99983.28
2023-04-06T11:01:57.197Z,99972.41
2023-04-06T11:04:25.161Z,99980.81
2023-04-06T11:06:52.316Z,99978.16
2023-04-06T11:09:32.832Z,99968.69
2023-04-06T11:12:00.093Z,99967.91
2023-04-06T11:14:27.977Z,99975.44
2023-04-06T11:16:55.379Z,99971.75
2023-04-06T11:19:22.710Z,99961.13
2023-04-06T11:21:50.805Z,99958.91
2023-04-06T11:24:25.299Z,99968.78
2023-04-06T11:27:02.265Z,99953.38
2023-04-06T11:29:36.777Z,99951.56
2023-04-06T11:32:06.986Z,99945.56
2023-04-06T11:34:40.872Z,99942.59
2023-04-06T11:37:13.515Z,99940.97
2023-04-06T11:39:52.652Z,99934.31
2023-04-06T11:42:29.497Z,99923.31
2023-04-06T11:45:01.689Z,99930.38
2023-04-06T11:47:37.800Z,99933.72
2023-04-06T11:50:15.382Z,99921.94
2023-04-06T11:52:43.937Z,99915.91
2023-04-06T11:55:19.281Z,99908.53
2023-04-06T11:57:46.806Z,99902.16
2023-04-06T12:00:14.745Z,99921.16
2023-04-06T12:02:47.654Z,99913.38
2023-04-06T12:05:14.906Z,99914.41
2023-04-06T12:10:09.690Z,99898.31
2023-04-06T12:12:37.080Z,99896.53
2023-04-06T12:15:06.384Z,99892.75
2023-04-06T12:17:39.676Z,99910.31
2023-04-06T12:20:18.074Z,99900.72
2023-04-06T12:22:51.992Z,99897.78
2023-04-06T12:25:19.163Z,99900.81
2023-04-06T12:27:46.697Z,99906.34
2023-04-06T12:30:15.342Z,99907.53
2023-04-06T12:32:42.476Z,99895.28
2023-04-06T12:35:12.832Z,99898.41
2023-04-06T12:37:41.557Z,99894.69
2023-04-06T12:40:11.819Z,99898.69
2023-04-06T12:42:42.021Z,99901.19
2023-04-06T12:45:10.259Z,99890.59
2023-04-06T12:47:39.077Z,99888.09
2023-04-06T12:50:07.882Z,99892.69
2023-04-06T12:52:36.613Z,99882.81
2023-04-06T12:55:06.400Z,99880.22
2023-04-06T12:57:34.060Z,99875.94
2023-04-06T13:00:01.544Z,99886.84
2023-04-06T13:02:29.040Z,99876.00
2023-04-06T13:04:56.365Z,99874.22
2023-04-06T13:07:23.945Z,99871.84
2023-04-06T13:09:52.826Z,99864.09
2023-04-06T13:12:20.251Z,99867.69
2023-04-06T13:14:52.196Z,99865.34
2023-04-06T13:17:19.337Z,99859.66
2023-04-06T13:19:46.826Z,99855.84
2023-04-06T13:22:14.737Z,99867.53
2023-04-06T13:24:42.207Z,99863.56
2023-04-06T13:27:13.799Z,99857.63
2023-04-06T13:29:41.344Z,99857.16
2023-04-06T13:32:11.158Z,99855.81
2023-04-06T13:34:38.775Z,99848.63
2023-04-06T13:37:06.120Z,99854.34
2023-04-06T13:39:33.701Z,99848.50
2023-04-06T13:42:02.842Z,99848.13
2023-04-06T13:44:31.997Z,99849.06
2023-04-06T13:47:05.867Z,99845.91
2023-04-06T13:49:33.935Z,99835.25
2023-04-06T13:52:04.728Z,99841.47
2023-04-06T13:54:34.099Z,99835.34
2023-04-06T13:57:02.864Z,99838.16
2023-04-06T13:59:40.518Z,99830.28
2023-04-06T14:02:10.926Z,99828.31
2023-04-06T14:04:38.550Z,99833.06
2023-04-06T14:07:08.539Z,99831.66
2023-04-06T14:09:35.901Z,99831.88
2023-04-06T14:12:03.209Z,99827.78
2023-04-06T14:14:30.767Z,99823.97
2023-04-06T14:16:58.167Z,99822.47
2023-04-06T14:19:25.697Z,99822.31
2023-04-06T14:21:52.991Z,99827.84
2023-04-06T14:24:22.502Z,99821.72
2023-04-06T14:26:49.495Z,99816.47
2023-04-06T14:29:17.963Z,99821.91
2023-04-06T14:31:48.366Z,99817.59
2023-04-06T14:34:17.146Z,99815.91
2023-04-06T14:36:44.515Z,99815.38
2023-04-06T14:39:11.892Z,99812.28
2023-04-06T14:41:39.445Z,99810.06
2023-04-06T14:44:06.913Z,99812.59
2023-04-06T14:46:34.648Z,99805.06
2023-04-06T14:49:02.250Z,99806.00
2023-04-06T14:51:29.949Z,99809.22
2023-04-06T14:53:57.718Z,99798.94
2023-04-06T14:56:25.997Z,99802.44
2023-04-06T14:58:55.096Z,99803.81
2023-04-06T15:01:22.739Z,99802.78
2023-04-06T15:03:50.486Z,99796.94
2023-04-06T15:06:21.735Z,99808.50
2023-04-06T15:08:50.588Z,99802.91
2023-04-06T15:11:18.228Z,99801.44
2023-04-06T15:13:45.595Z,99804.00
2023-04-06T15:16:13.006Z,99800.50
2023-04-06T15:18:40.757Z,99794.09
2023-04-06T15:21:08.465Z,99798.22
2023-04-06T15:23:35.983Z,99785.94
2023-04-06T15:26:05.454Z,99795.78
2023-04-06T15:28:32.481Z,99796.63
2023-04-06T15:31:01.031Z,99785.19
2023-04-06T15:33:34.487Z,99790.38
2023-04-06T15:36:08.076Z,99791.91
2023-04-06T15:38:35.192Z,99789.41
2023-04-06T15:41:04.004Z,99781.69
2023-04-06T15:43:31.531Z,99781.66
2023-04-06T15:45:58.852Z,99785.47
2023-04-06T15:48:26.310Z,99785.19
2023-04-06T15:50:53.715Z,99775.47
2023-04-06T15:53:21.194Z,99782.50
2023-04-06T15:55:49.671Z,99781.16
2023-04-06T15:58:17.187Z,99784.28
2023-04-06T16:00:45.691Z,99791.50
2023-04-06T16:03:13.352Z,99782.97
2023-04-06T16:05:53.706Z,99787.88
2023-04-06T16:08:26.999Z,99789.09
2023-04-06T16:10:54.378Z,99791.59
2023-04-06T16:13:28.283Z,99787.31
2023-04-06T16:15:55.764Z,99784.03
2023-04-06T16:18:24.023Z,99787.88
2023-04-06T16:20:51.580Z,99779.19
2023-04-06T16:23:18.941Z,99783.44
2023-04-06T16:25:46.719Z,99783.56
2023-04-06T16:28:14.394Z,99775.81
2023-04-06T16:30:43.644Z,99785.78
2023-04-06T16:33:13.375Z,99783.28
2023-04-06T16:35:45.736Z,99787.84
2023-04-06T16:38:13.858Z,99787.84
2023-04-06T16:40:41.280Z,99786.22
2023-04-06T16:43:10.223Z,99792.41
2023-04-06T16:45:38.778Z,99797.00
2023-04-06T16:48:06.935Z,99794.31
2023-04-06T16:50:36.695Z,99802.31
2023-04-06T16:53:04.271Z,99794.38
2023-04-06T16:55:31.657Z,99802.50
2023-04-06T16:57:59.128Z,99792.16
2023-04-06T17:00:26.658Z,99789.41
2023-04-06T17:02:54.306Z,99790.31
2023-04-06T17:05:25.021Z,99786.91
2023-04-06T17:07:52.608Z,99792.16
2023-04-06T17:10:28.742Z,99793.81
2023-04-06T17:13:06.395Z,99791.56
2023-04-06T17:15:33.864Z,99790.44
2023-04-06T17:18:02.857Z,99793.91
2023-04-06T17:20:30.424Z,99794.81
2023-04-06T17:22:57.687Z,99795.03
2023-04-06T17:25:26.318Z,99796.81
2023-04-06T17:27:53.567Z,99800.50
2023-04-06T17:30:21.591Z,99798.63
2023-04-06T17:32:49.113Z,99805.88
2023-04-06T17:35:16.703Z,99799.81
2023-04-06T17:37:46.068Z,99797.88
2023-04-06T17:40:13.551Z,99803.28
2023-04-06T17:42:40.961Z,99809.47
2023-04-06T17:45:08.579Z,99817.69
2023-04-06T17:47:36.367Z,99815.75
2023-04-06T17:50:04.000Z,99809.63
2023-04-06T17:52:32.202Z,99813.97
2023-04-06T17:54:59.888Z,99817.81
2023-04-06T17:57:27.798Z,99818.84
2023-04-06T17:59:55.295Z,99808.56
2023-04-06T18:02:23.193Z,99826.34
2023-04-06T18:05:00.053Z,99822.00
2023-04-06T18:07:27.265Z,99827.34
2023-04-06T18:09:54.781Z,99829.09
2023-04-06T18:12:22.364Z,99829.13
2023-04-06T18:14:49.993Z,99831.59
2023-04-06T18:17:17.172Z,99832.50
2023-04-06T18:19:44.845Z,99841.19
2023-04-06T18:22:12.352Z,99835.06
2023-04-06T18:24:42.670Z,99836.41
2023-04-06T18:27:14.008Z,99849.63
2023-04-06T18:29:45.608Z,99851.44
2023-04-06T18:32:15.878Z,99852.38
2023-04-06T18:34:45.690Z,99846.41
2023-04-06T18:37:15.073Z,99854.31
2023-04-06T18:39:43.830Z,99862.44
2023-04-06T18:42:11.388Z,99852.09
2023-04-06T18:44:39.545Z,99851.41
2023-04-06T18:47:07.210Z,99845.97
2023-04-06T18:49:34.934Z,99860.84
2023-04-06T18:52:03.615Z,99855.50
2023-04-06T18:54:31.466Z,99855.59
2023-04-06T18:56:59.222Z,99844.91
2023-04-06T18:59:30.724Z,99850.22
2023-04-06T19:01:59.563Z,99845.03
2023-04-06T19:04:27.366Z,99857.22
2023-04-06T19:06:55.985Z,99850.44
2023-04-06T19:09:23.922Z,99859.19
2023-04-06T19:11:51.666Z,99850.59
2023-04-06T19:14:20.156Z,99860.22
2023-04-06T19:16:52.622Z,99857.50
2023-04-06T19:19:26.161Z,99861.06
2023-04-06T19:21:53.660Z,99851.50
2023-04-06T19:24:21.509Z,99858.56
2023-04-06T19:26:50.030Z,99861.38
2023-04-06T19:29:17.681Z,99851.72
2023-04-06T19:31:47.146Z,99864.00
2023-04-06T19:34:18.078Z,99858.94
2023-04-06T19:36:46.633Z,99858.19
2023-04-06T19:39:18.433Z,99861.69
2023-04-06T19:41:47.780Z,99858.16
2023-04-06T19:44:16.110Z,99868.63
2023-04-06T19:46:46.612Z,99863.44
2023-04-06T19:49:14.766Z,99868.69
2023-04-06T19:51:48.179Z,99860.97
2023-04-06T19:54:15.678Z,99860.25
2023-04-06T19:56:43.151Z,99863.72
2023-04-06T19:59:11.438Z,99858.34
2023-04-06T20:01:39.244Z,99850.59
2023-04-06T20:04:13.294Z,99858.38
2023-04-06T20:06:40.767Z,99854.16
2023-04-06T20:09:09.715Z,99855.97
2023-04-06T20:11:37.829Z,99858.91
2023-04-06T20:14:11.320Z,99862.44
2023-04-06T20:16:38.584Z,99859.00
2023-04-06T20:19:06.290Z,99857.47
2023-04-06T20:21:36.860Z,99859.19
2023-04-06T20:24:06.227Z,99845.94
2023-04-06T20:26:33.639Z,99852.09
2023-04-06T20:29:01.219Z,99844.25
2023-04-06T20:31:29.191Z,99849.44
2023-04-06T20:33:56.701Z,99837.19
2023-04-06T20:36:28.233Z,99831.81
2023-04-06T20:38:55.481Z,99828.34
2023-04-06T20:41:23.298Z,99829.28
2023-04-06T20:43:50.898Z,99825.88
2023-04-06T20:46:18.597Z,99824.09
2023-04-06T20:48:45.791Z,99817.09
2023-04-06T20:51:25.794Z,99822.41
2023-04-06T20:53:53.135Z,99822.44
2023-04-06T20:56:27.765Z,99818.09
2023-04-06T20:58:57.569Z,99811.94
2023-04-06T21:01:25.284Z,99812.03
2023-04-06T21:03:59.558Z,99810.25
2023-04-06T21:06:28.780Z,99810.25
2023-04-06T21:08:56.291Z,99804.06
2023-04-06T21:11:23.580Z,99813.75
2023-04-06T21:13:51.152Z,99806.78
2023-04-06T21:16:18.588Z,99806.84
2023-04-06T21:18:46.991Z,99806.78
2023-04-06T21:21:14.627Z,99809.34
2023-04-06T21:23:42.023Z,99816.31
2023-04-06T21:26:12.800Z,99805.88
2023-04-06T21:28:39.950Z,99801.50
2023-04-06T21:31:08.993Z,99801.47
2023-04-06T21:33:36.480Z,99797.97
2023-04-06T21:36:08.356Z,99799.72
2023-04-06T21:38:35.996Z,99796.22
2023-04-06T21:41:03.913Z,99796.22
2023-04-06T21:43:31.320Z,99791.84
2023-04-06T21:45:58.759Z,99797.97
2023-04-06T21:48:26.246Z,99797.94
2023-04-06T21:50:53.703Z,99793.63
2023-04-06T21:53:21.250Z,99783.19
2023-04-06T21:55:51.341Z,99785.84
2023-04-06T21:58:21.721Z,99791.09
2023-04-06T22:00:49.180Z,99778.03
2023-04-06T22:03:16.775Z,99785.94
2023-04-06T22:05:44.163Z,99788.66
2023-04-06T22:08:17.825Z,99786.09
2023-04-06T22:10:53.303Z,99779.97
2023-04-06T22:13:20.696Z,99781.72
2023-04-06T22:15:49.315Z,99782.63
2023-04-06T22:18:16.727Z,99783.56
2023-04-06T22:20:44.736Z,99778.34
2023-04-06T22:23:12.391Z,99778.44
2023-04-06T22:25:39.708Z,99775.03
2023-04-06T22:28:07.166Z,99775.97
2023-04-06T22:30:34.477Z,99778.59
2023-04-06T22:33:03.109Z,99779.66
2023-04-06T22:35:30.521Z,99781.41
2023-04-06T22:38:00.857Z,99771.06
2023-04-06T22:40:29.376Z,99771.94
2023-04-06T22:42:56.831Z,99772.81
2023-04-06T22:45:26.324Z,99771.06
2023-04-06T22:47:53.494Z,99778.03
2023-04-06T22:50:22.194Z,99770.19
2023-04-06T22:52:49.385Z,99766.66
2023-04-06T22:55:16.750Z,99771.88
2023-04-06T22:57:44.363Z,99758.81
2023-04-06T23:00:13.982Z,99765.00
2023-04-06T23:02:41.481Z,99760.63
2023-04-06T23:05:09.361Z,99764.16
2023-04-06T23:07:36.414Z,99755.50
2023-04-06T23:10:08.036Z,99756.41
2023-04-06T23:12:35.614Z,99753.84
2023-04-06T23:15:02.966Z,99763.44
2023-04-06T23:17:30.765Z,99753.91
2023-04-06T23:20:04.698Z,99747.81
2023-04-06T23:22:33.258Z,99746.88
2023-04-06T23:25:00.641Z,99750.38
2023-04-06T23:27:28.124Z,99753.03
2023-04-06T23:29:56.525Z,99745.25
2023-04-06T23:32:23.952Z,99750.63
2023-04-06T23:34:52.404Z,99742.75
2023-04-06T23:37:20.937Z,99747.13
2023-04-06T23:39:48.726Z,99742.81
2023-04-06T23:42:17.067Z,99740.31
2023-04-06T23:44:44.323Z,99734.22
2023-04-06T23:47:12.269Z,99729.97
2023-04-06T23:49:40.752Z,99724.84
2023-04-06T23:52:08.173Z,99724.97
2023-04-06T23:54:35.921Z,99728.56
2023-04-06T23:57:04.135Z,99718.16
2023-04-06T23:59:31.636Z,99725.16
